createdAt,value
2019-02-10T00:01:10.261Z,11.17
2019-02-10T00:03:48.146Z,6.53
2019-02-10T00:06:24.826Z,9.40
2019-02-10T00:08:51.232Z,14.83
2019-02-10T00:11:19.808Z,8.23
2019-02-10T00:13:48.618Z,12.83
2019-02-10T00:16:17.547Z,8.43
2019-02-10T00:18:46.484Z,11.43
2019-02-10T00:21:15.070Z,12.47
2019-02-10T00:23:43.655Z,7.43
2019-02-10T00:26:12.224Z,15.77
2019-02-10T00:28:42.244Z,15.60
2019-02-10T00:31:10.840Z,5.67
2019-02-10T00:33:39.418Z,5.23
2019-02-10T00:36:07.994Z,14.30
2019-02-10T00:38:36.595Z,8.93
2019-02-10T00:41:07.165Z,6.97
2019-02-10T00:43:35.812Z,12.63
2019-02-10T00:46:04.403Z,10.37
2019-02-10T00:48:33.474Z,7.10
2019-02-10T00:51:02.427Z,13.83
2019-02-10T00:53:31.062Z,8.37
2019-02-10T00:55:59.626Z,14.90
2019-02-10T00:58:28.238Z,10.57
2019-02-10T01:00:56.795Z,10.80
2019-02-10T01:03:25.400Z,7.30
2019-02-10T01:05:53.955Z,8.87
2019-02-10T01:08:22.635Z,10.73
2019-02-10T01:10:51.242Z,9.10
2019-02-10T01:13:19.937Z,7.30
2019-02-10T01:15:49.939Z,9.53
2019-02-10T01:18:18.635Z,7.60
2019-02-10T01:20:47.162Z,10.00
2019-02-10T01:23:15.808Z,11.13
2019-02-10T01:25:44.687Z,11.47
2019-02-10T01:28:13.249Z,9.00
2019-02-10T01:30:42.611Z,12.47
2019-02-10T01:33:11.192Z,16.10
2019-02-10T01:35:39.848Z,11.27
2019-02-10T01:38:08.433Z,11.10
2019-02-10T01:40:37.098Z,10.97
2019-02-10T01:43:05.694Z,9.67
2019-02-10T01:45:34.266Z,9.63
2019-02-10T01:48:03.570Z,7.40
2019-02-10T01:50:32.143Z,7.83
2019-02-10T01:53:00.751Z,8.07
2019-02-10T01:55:29.313Z,5.90
2019-02-10T01:57:57.852Z,5.43
2019-02-10T02:00:26.414Z,10.23
2019-02-10T02:02:55.433Z,9.20
2019-02-10T02:05:24.072Z,10.40
2019-02-10T02:07:52.639Z,11.90
2019-02-10T02:10:21.238Z,8.00
2019-02-10T02:12:49.927Z,21.00
2019-02-10T02:15:18.520Z,11.70
2019-02-10T02:17:47.111Z,10.20
2019-02-10T02:20:15.703Z,15.23
2019-02-10T02:22:44.343Z,7.00
2019-02-10T02:25:13.221Z,14.30
2019-02-10T02:27:42.335Z,13.90
2019-02-10T02:30:13.472Z,8.90
2019-02-10T02:32:42.477Z,12.63
2019-02-10T02:35:11.225Z,10.23
2019-02-10T02:37:39.881Z,18.50
2019-02-10T02:40:12.078Z,11.13
2019-02-10T02:42:40.961Z,8.57
2019-02-10T02:45:11.544Z,15.17
2019-02-10T02:47:40.647Z,12.17
2019-02-10T02:50:12.427Z,7.77
2019-02-10T02:52:41.148Z,13.13
2019-02-10T02:55:10.616Z,11.20
2019-02-10T02:57:39.260Z,18.63
2019-02-10T03:00:10.335Z,8.90
2019-02-10T03:02:38.897Z,11.63
2019-02-10T03:05:11.021Z,9.47
2019-02-10T03:07:39.644Z,17.53
2019-02-10T03:10:09.280Z,14.67
2019-02-10T03:12:37.929Z,7.10
2019-02-10T03:15:10.313Z,8.60
2019-02-10T03:17:38.988Z,13.03
2019-02-10T03:20:09.341Z,7.70
2019-02-10T03:22:38.056Z,7.33
2019-02-10T03:25:07.736Z,11.00
2019-02-10T03:27:36.342Z,20.67
2019-02-10T03:30:07.827Z,11.53
2019-02-10T03:32:36.438Z,18.90
2019-02-10T03:35:07.162Z,12.43
2019-02-10T03:37:35.903Z,11.00
2019-02-10T03:40:06.390Z,13.40
2019-02-10T03:42:35.056Z,9.77
2019-02-10T03:45:04.402Z,16.33
2019-02-10T03:47:33.054Z,12.97
2019-02-10T03:50:01.821Z,11.47
2019-02-10T03:52:30.460Z,13.00
2019-02-10T03:54:58.988Z,15.47
2019-02-10T03:57:27.580Z,9.80
2019-02-10T03:59:56.200Z,9.10
2019-02-10T04:02:25.550Z,18.00
2019-02-10T04:04:54.173Z,15.70
2019-02-10T04:07:22.834Z,11.30
2019-02-10T04:09:51.509Z,9.00
2019-02-10T04:12:20.122Z,9.50
2019-02-10T04:14:48.707Z,8.03
2019-02-10T04:17:17.479Z,14.20
2019-02-10T04:19:46.085Z,9.17
2019-02-10T04:22:14.669Z,9.90
2019-02-10T04:24:43.755Z,9.83
2019-02-10T04:27:12.607Z,11.30
2019-02-10T04:29:41.220Z,14.37
2019-02-10T04:32:09.798Z,9.60
2019-02-10T04:34:38.396Z,6.73
2019-02-10T04:37:06.907Z,13.30
2019-02-10T04:39:35.568Z,9.53
2019-02-10T04:42:04.128Z,14.63
2019-02-10T04:44:32.682Z,11.73
2019-02-10T04:47:01.210Z,21.43
2019-02-10T04:49:29.906Z,8.27
2019-02-10T04:51:58.472Z,13.00
2019-02-10T04:54:27.384Z,9.17
2019-02-10T04:56:55.892Z,7.77
2019-02-10T04:59:24.564Z,10.60
2019-02-10T05:01:53.118Z,11.10
2019-02-10T05:04:21.709Z,11.77
2019-02-10T05:06:50.272Z,9.57
2019-02-10T05:09:18.872Z,6.77
2019-02-10T05:11:47.438Z,13.87
2019-02-10T05:14:16.039Z,16.43
2019-02-10T05:16:45.005Z,10.23
2019-02-10T05:19:13.738Z,10.97
2019-02-10T05:21:42.281Z,10.93
2019-02-10T05:24:11.097Z,8.63
2019-02-10T05:26:39.581Z,14.93
2019-02-10T05:29:08.258Z,7.23
2019-02-10T05:31:36.819Z,14.47
2019-02-10T05:34:05.419Z,11.43
2019-02-10T05:36:35.100Z,8.80
2019-02-10T05:39:04.650Z,6.67
2019-02-10T05:41:33.183Z,9.43
2019-02-10T05:44:01.774Z,12.30
2019-02-10T05:46:30.368Z,8.07
2019-02-10T05:48:58.981Z,15.17
2019-02-10T05:51:27.541Z,10.13
2019-02-10T05:53:56.157Z,9.53
2019-02-10T05:56:24.724Z,13.73
2019-02-10T05:58:53.424Z,11.27
2019-02-10T06:01:56.962Z,13.60
2019-02-10T06:04:25.592Z,4.97
2019-02-10T06:06:57.115Z,17.07
2019-02-10T06:09:25.941Z,16.23
2019-02-10T06:11:54.500Z,11.93
2019-02-10T06:14:23.439Z,10.07
2019-02-10T06:16:51.974Z,17.30
2019-02-10T06:19:20.575Z,8.90
2019-02-10T06:21:49.154Z,8.17
2019-02-10T06:24:18.010Z,9.07
2019-02-10T06:26:46.640Z,13.77
2019-02-10T06:29:15.316Z,16.60
2019-02-10T06:31:43.827Z,8.30
2019-02-10T06:34:12.461Z,11.70
2019-02-10T06:36:41.083Z,9.50
2019-02-10T06:39:09.745Z,11.70
2019-02-10T06:41:38.340Z,11.90
2019-02-10T06:44:07.289Z,11.53
2019-02-10T06:46:35.979Z,14.87
2019-02-10T06:49:04.550Z,13.50
2019-02-10T06:51:33.069Z,11.03
2019-02-10T06:54:01.666Z,7.57
2019-02-10T06:56:30.272Z,15.00
2019-02-10T06:58:59.125Z,13.67
2019-02-10T07:01:31.785Z,11.60
2019-02-10T07:04:04.139Z,13.93
2019-02-10T07:06:32.720Z,8.13
2019-02-10T07:09:01.603Z,10.90
2019-02-10T07:11:30.263Z,10.60
2019-02-10T07:13:59.505Z,13.77
2019-02-10T07:16:36.930Z,19.23
2019-02-10T07:19:34.521Z,15.57
2019-02-10T07:22:32.198Z,15.57
2019-02-10T07:25:15.913Z,8.77
2019-02-10T07:28:03.056Z,11.83
2019-02-10T07:30:46.632Z,10.40
2019-02-10T07:33:21.039Z,12.17
2019-02-10T07:36:15.047Z,12.73
2019-02-10T07:39:01.973Z,15.97
2019-02-10T07:41:45.636Z,10.13
2019-02-10T07:44:44.051Z,12.97
2019-02-10T07:47:16.105Z,22.47
2019-02-10T07:50:00.014Z,11.10
2019-02-10T07:52:37.581Z,10.90
2019-02-10T07:55:20.678Z,10.30
2019-02-10T07:58:04.307Z,13.07
2019-02-10T08:00:48.055Z,11.40
2019-02-10T08:03:25.773Z,8.67
2019-02-10T08:06:00.317Z,9.60
2019-02-10T08:08:50.426Z,16.03
2019-02-10T08:11:25.053Z,8.63
2019-02-10T08:14:08.746Z,8.17
2019-02-10T08:16:44.238Z,13.47
2019-02-10T08:19:24.666Z,7.43
2019-02-10T08:22:13.042Z,11.33
2019-02-10T08:24:51.110Z,9.00
2019-02-10T08:27:37.483Z,10.47
2019-02-10T08:30:30.199Z,18.13
2019-02-10T08:33:17.191Z,33.93
2019-02-10T08:36:09.450Z,24.60
2019-02-10T08:38:54.593Z,26.57
2019-02-10T08:41:35.273Z,16.13
2019-02-10T08:44:24.824Z,17.53
2019-02-10T08:47:05.476Z,15.77
2019-02-10T08:49:51.912Z,24.47
2019-02-10T08:52:29.509Z,7.60
2019-02-10T08:54:59.031Z,8.70
2019-02-10T08:57:28.539Z,12.47
2019-02-10T08:59:57.233Z,17.30
2019-02-10T09:02:25.779Z,12.70
2019-02-10T09:04:54.376Z,14.93
2019-02-10T09:07:22.942Z,11.90
2019-02-10T09:10:02.565Z,16.40
2019-02-10T09:12:31.170Z,13.30
2019-02-10T09:14:59.906Z,15.00
2019-02-10T09:17:28.693Z,21.73
2019-02-10T09:19:57.223Z,22.77
2019-02-10T09:22:26.238Z,15.20
2019-02-10T09:24:55.223Z,11.63
2019-02-10T09:27:23.792Z,17.90
2019-02-10T09:29:52.401Z,12.77
2019-02-10T09:32:21.115Z,15.87
2019-02-10T09:34:49.643Z,22.77
2019-02-10T09:37:18.362Z,13.53
2019-02-10T09:39:46.928Z,14.60
2019-02-10T09:42:15.522Z,12.17
2019-02-10T09:44:44.098Z,13.60
2019-02-10T09:47:13.080Z,14.57
2019-02-10T09:49:41.731Z,13.60
2019-02-10T09:52:10.365Z,11.70
2019-02-10T09:54:49.697Z,18.67
2019-02-10T09:57:18.291Z,11.80
2019-02-10T09:59:46.831Z,14.37
2019-02-10T10:02:15.424Z,16.40
2019-02-10T10:04:43.941Z,11.30
2019-02-10T10:07:12.623Z,14.77
2019-02-10T10:09:41.164Z,23.87
2019-02-10T10:12:09.784Z,11.70
2019-02-10T10:14:38.339Z,17.40
2019-02-10T10:17:07.348Z,9.80
2019-02-10T10:19:36.237Z,11.63
2019-02-10T10:22:04.923Z,11.03
2019-02-10T10:24:34.772Z,10.73
2019-02-10T10:27:03.456Z,12.23
2019-02-10T10:29:32.038Z,11.30
2019-02-10T10:32:00.711Z,10.30
2019-02-10T10:34:29.378Z,13.83
2019-02-10T10:36:58.203Z,10.80
2019-02-10T10:39:27.627Z,12.30
2019-02-10T10:41:56.444Z,10.23
2019-02-10T10:44:25.043Z,11.30
2019-02-10T10:46:53.738Z,8.03
2019-02-10T10:49:22.301Z,11.23
2019-02-10T10:51:50.910Z,13.50
2019-02-10T10:54:19.468Z,10.57
2019-02-10T10:56:48.074Z,6.33
2019-02-10T10:59:16.696Z,10.93
2019-02-10T11:01:45.852Z,7.60
2019-02-10T11:04:14.415Z,9.60
2019-02-10T11:06:43.022Z,14.30
2019-02-10T11:09:11.603Z,16.00
2019-02-10T11:11:40.187Z,9.73
2019-02-10T11:14:08.728Z,10.30
2019-02-10T11:16:37.289Z,9.07
2019-02-10T11:19:06.245Z,9.40
2019-02-10T11:21:34.844Z,9.10
2019-02-10T11:24:03.470Z,10.47
2019-02-10T11:26:32.113Z,21.47
2019-02-10T11:29:01.138Z,9.13
2019-02-10T11:31:30.031Z,10.33
2019-02-10T11:33:58.789Z,5.83
2019-02-10T11:36:27.443Z,17.63
2019-02-10T11:38:56.047Z,11.17
2019-02-10T11:41:24.705Z,8.83
2019-02-10T11:43:53.264Z,8.00
2019-02-10T11:46:21.814Z,13.73
2019-02-10T11:48:50.378Z,7.73
2019-02-10T11:51:19.049Z,7.53
2019-02-10T11:53:47.613Z,4.47
2019-02-10T11:56:16.304Z,11.33
2019-02-10T11:58:44.801Z,6.40
2019-02-10T12:01:13.360Z,4.10
2019-02-10T12:03:41.887Z,6.03
2019-02-10T12:06:10.452Z,5.77
2019-02-10T12:08:38.988Z,7.00
2019-02-10T12:11:07.913Z,3.10
2019-02-10T12:13:38.612Z,5.97
2019-02-10T12:16:07.077Z,4.27
2019-02-10T12:18:36.095Z,5.30
2019-02-10T12:21:04.672Z,7.90
2019-02-10T12:23:33.214Z,3.47
2019-02-10T12:26:01.779Z,3.50
2019-02-10T12:28:30.304Z,14.73
2019-02-10T12:30:58.893Z,3.00
2019-02-10T12:33:27.417Z,3.77
2019-02-10T12:35:58.418Z,7.07
2019-02-10T12:38:26.317Z,6.60
2019-02-10T12:40:55.326Z,6.77
2019-02-10T12:43:24.340Z,3.70
2019-02-10T12:45:52.888Z,3.13
2019-02-10T12:48:23.980Z,7.07
2019-02-10T12:50:52.351Z,2.60
2019-02-10T12:53:20.927Z,6.93
2019-02-10T12:55:49.517Z,5.33
2019-02-10T12:58:18.063Z,5.93
2019-02-10T13:00:46.690Z,4.27
2019-02-10T13:03:15.545Z,8.60
2019-02-10T13:05:44.192Z,12.30
2019-02-10T13:08:12.747Z,4.90
2019-02-10T13:10:41.391Z,4.97
2019-02-10T13:13:10.048Z,3.80
2019-02-10T13:15:38.715Z,4.20
2019-02-10T13:18:08.371Z,4.30
2019-02-10T13:20:36.965Z,5.57
2019-02-10T13:23:05.624Z,5.20
2019-02-10T13:25:34.335Z,4.37
2019-02-10T13:28:02.903Z,4.80
2019-02-10T13:30:31.520Z,5.83
2019-02-10T13:33:00.197Z,7.90
2019-02-10T13:35:28.786Z,6.00
2019-02-10T13:37:57.398Z,3.13
2019-02-10T13:40:26.048Z,4.67
2019-02-10T13:42:54.610Z,6.03
2019-02-10T13:45:23.177Z,3.50
2019-02-10T13:47:51.795Z,2.93
2019-02-10T13:50:21.215Z,3.83
2019-02-10T13:52:50.732Z,4.50
2019-02-10T13:55:19.394Z,4.30
2019-02-10T13:57:47.942Z,4.10
2019-02-10T14:00:24.500Z,6.67
2019-02-10T14:02:53.113Z,6.30
2019-02-10T14:05:21.697Z,7.37
2019-02-10T14:07:51.287Z,5.67
2019-02-10T14:10:25.780Z,3.80
2019-02-10T14:12:50.453Z,6.23
2019-02-10T14:15:20.328Z,6.00
2019-02-10T14:17:48.931Z,5.77
2019-02-10T14:20:19.115Z,2.90
2019-02-10T14:22:47.677Z,2.47
2019-02-10T14:25:16.609Z,2.97
2019-02-10T14:27:45.163Z,4.03
2019-02-10T14:30:17.116Z,3.83
2019-02-10T14:32:46.046Z,2.43
2019-02-10T14:35:14.704Z,2.87
2019-02-10T14:37:43.461Z,5.20
2019-02-10T14:40:12.554Z,4.50
2019-02-10T14:42:41.251Z,3.63
2019-02-10T14:45:13.014Z,5.67
2019-02-10T14:47:41.850Z,3.33
2019-02-10T14:50:13.483Z,2.87
2019-02-10T14:52:42.508Z,3.03
2019-02-10T14:55:11.045Z,3.87
2019-02-10T14:57:39.909Z,6.00
2019-02-10T15:00:11.999Z,4.57
2019-02-10T15:02:40.582Z,3.43
2019-02-10T15:05:11.518Z,5.10
2019-02-10T15:07:43.530Z,6.40
2019-02-10T15:10:14.391Z,4.30
2019-02-10T15:12:43.044Z,3.20
2019-02-10T15:15:12.037Z,7.33
2019-02-10T15:17:40.594Z,7.10
2019-02-10T15:20:10.907Z,5.03
2019-02-10T15:22:39.580Z,5.93
2019-02-10T15:25:12.684Z,7.17
2019-02-10T15:27:41.268Z,4.07
2019-02-10T15:30:12.874Z,2.97
2019-02-10T15:32:41.557Z,3.17
2019-02-10T15:35:12.544Z,2.57
2019-02-10T15:37:41.198Z,2.80
2019-02-10T15:40:11.846Z,5.60
2019-02-10T15:42:40.654Z,4.77
2019-02-10T15:45:14.508Z,4.67
2019-02-10T15:47:43.721Z,2.93
2019-02-10T15:50:13.590Z,3.43
2019-02-10T15:52:42.218Z,2.70
2019-02-10T15:55:13.063Z,3.20
2019-02-10T15:57:42.246Z,3.47
2019-02-10T16:00:25.685Z,3.27
2019-02-10T16:02:54.350Z,14.27
2019-02-10T16:05:22.867Z,5.37
2019-02-10T16:07:51.459Z,3.17
2019-02-10T16:10:20.064Z,5.90
2019-02-10T16:12:48.797Z,5.87
2019-02-10T16:15:17.775Z,4.17
2019-02-10T16:17:46.400Z,3.23
2019-02-10T16:20:15.584Z,2.93
2019-02-10T16:22:44.294Z,5.43
2019-02-10T16:25:13.327Z,4.17
2019-02-10T16:27:41.925Z,3.00
2019-02-10T16:30:15.209Z,3.97
2019-02-10T16:32:49.596Z,4.37
2019-02-10T16:35:14.234Z,3.43
2019-02-10T16:37:42.803Z,6.60
2019-02-10T16:40:14.586Z,3.50
2019-02-10T16:42:43.300Z,2.97
2019-02-10T16:45:13.069Z,4.60
2019-02-10T16:47:41.644Z,7.30
2019-02-10T16:50:13.353Z,6.47
2019-02-10T16:52:41.966Z,7.80
2019-02-10T16:55:17.078Z,5.83
2019-02-10T16:57:45.689Z,3.73
2019-02-10T17:00:15.845Z,8.70
2019-02-10T17:02:44.478Z,6.00
2019-02-10T17:05:13.680Z,4.50
2019-02-10T17:07:42.280Z,5.37
2019-02-10T17:10:21.127Z,8.03
2019-02-10T17:12:50.973Z,5.23
2019-02-10T17:15:19.559Z,5.50
2019-02-10T17:17:48.262Z,11.30
2019-02-10T17:20:16.890Z,4.93
2019-02-10T17:22:45.715Z,5.03
2019-02-10T17:25:26.494Z,3.30
2019-02-10T17:27:55.209Z,9.87
2019-02-10T17:30:23.810Z,4.40
2019-02-10T17:32:52.392Z,2.77
2019-02-10T17:35:21.379Z,5.10
2019-02-10T17:37:50.050Z,3.07
2019-02-10T17:40:24.299Z,5.90
2019-02-10T17:42:53.009Z,5.80
2019-02-10T17:45:41.662Z,4.00
2019-02-10T17:48:10.301Z,7.70
2019-02-10T17:50:39.146Z,7.93
2019-02-10T17:53:07.768Z,3.03
2019-02-10T17:55:36.336Z,4.20
2019-02-10T17:58:05.361Z,5.50
2019-02-10T18:00:35.586Z,6.90
2019-02-10T18:03:04.603Z,3.53
2019-02-10T18:05:33.163Z,3.30
2019-02-10T18:08:01.870Z,2.80
2019-02-10T18:10:30.538Z,3.23
2019-02-10T18:12:59.628Z,6.90
2019-02-10T18:15:46.074Z,6.53
2019-02-10T18:18:31.329Z,5.53
2019-02-10T18:21:25.096Z,4.03
2019-02-10T18:24:11.511Z,1.93
2019-02-10T18:26:44.680Z,4.37
2019-02-10T18:29:36.594Z,6.93
2019-02-10T18:32:14.770Z,4.83
2019-02-10T18:35:02.096Z,2.40
2019-02-10T18:37:35.311Z,1.83
2019-02-10T18:40:10.231Z,3.53
2019-02-10T18:42:43.220Z,3.10
2019-02-10T18:45:31.823Z,2.10
2019-02-10T18:48:04.648Z,2.33
2019-02-10T18:50:41.175Z,1.83
2019-02-10T18:53:27.635Z,2.10
2019-02-10T18:56:13.889Z,2.47
2019-02-10T18:58:44.056Z,2.70
2019-02-10T19:01:26.600Z,2.50
2019-02-10T19:04:15.212Z,3.37
2019-02-10T19:06:48.547Z,3.90
2019-02-10T19:09:21.811Z,3.10
2019-02-10T19:11:52.522Z,2.20
2019-02-10T19:14:25.447Z,2.13
2019-02-10T19:17:01.749Z,1.73
2019-02-10T19:19:32.015Z,3.43
2019-02-10T19:22:02.329Z,2.40
2019-02-10T19:24:44.648Z,3.10
2019-02-10T19:27:21.089Z,2.27
2019-02-10T19:29:55.180Z,4.07
2019-02-10T19:32:25.462Z,2.37
2019-02-10T19:35:10.703Z,4.83
2019-02-10T19:37:49.905Z,2.27
2019-02-10T19:40:25.974Z,2.47
2019-02-10T19:43:13.241Z,2.23
2019-02-10T19:45:43.477Z,2.90
2019-02-10T19:48:25.287Z,2.67
2019-02-10T19:51:00.981Z,3.10
2019-02-10T19:53:40.246Z,5.00
2019-02-10T19:56:10.887Z,2.10
2019-02-10T19:58:59.082Z,5.57
2019-02-10T20:01:45.719Z,2.00
2019-02-10T20:04:16.096Z,3.90
2019-02-10T20:07:01.535Z,2.43
2019-02-10T20:09:35.025Z,2.90
2019-02-10T20:12:21.380Z,2.30
2019-02-10T20:14:58.104Z,2.30
2019-02-10T20:17:34.055Z,1.93
2019-02-10T20:20:07.531Z,2.37
2019-02-10T20:22:53.844Z,2.40
2019-02-10T20:25:39.382Z,3.10
2019-02-10T20:28:12.422Z,1.73
2019-02-10T20:30:48.593Z,3.50
2019-02-10T20:33:21.567Z,1.90
2019-02-10T20:35:51.878Z,2.20
2019-02-10T20:38:22.534Z,2.03
2019-02-10T20:40:59.375Z,1.50
2019-02-10T20:43:44.650Z,1.50
2019-02-10T20:46:18.702Z,1.20
2019-02-10T20:48:49.032Z,1.50
2019-02-10T20:51:35.679Z,1.40
2019-02-10T20:54:06.350Z,1.30
2019-02-10T20:56:39.519Z,1.90
2019-02-10T20:59:25.911Z,2.03
2019-02-10T21:02:05.251Z,1.90
2019-02-10T21:04:35.506Z,2.33
2019-02-10T21:07:12.060Z,1.77
2019-02-10T21:09:58.807Z,2.00
2019-02-10T21:12:29.120Z,3.83
2019-02-10T21:14:59.287Z,2.23
2019-02-10T21:17:41.569Z,2.13
2019-02-10T21:20:14.203Z,1.73
2019-02-10T21:22:47.252Z,2.90
2019-02-10T21:25:33.526Z,1.40
2019-02-10T21:28:09.499Z,0.90
2019-02-10T21:30:45.558Z,2.57
2019-02-10T21:33:15.872Z,2.20
2019-02-10T21:35:55.017Z,3.30
2019-02-10T21:38:25.690Z,0.80
2019-02-10T21:40:55.969Z,0.80
2019-02-10T21:43:42.640Z,1.13
2019-02-10T21:46:13.002Z,4.90
2019-02-10T21:48:43.302Z,2.47
2019-02-10T21:51:11.964Z,1.10
2019-02-10T21:53:40.538Z,1.00
2019-02-10T21:56:09.157Z,1.57
2019-02-10T21:58:37.696Z,1.30
2019-02-10T22:01:06.409Z,1.17
2019-02-10T22:03:34.964Z,1.00
2019-02-10T22:06:03.996Z,0.97
2019-02-10T22:08:32.639Z,2.30
2019-02-10T22:11:01.221Z,1.10
2019-02-10T22:13:29.814Z,0.87
2019-02-10T22:15:58.426Z,0.93
2019-02-10T22:18:26.960Z,0.77
2019-02-10T22:20:55.579Z,1.10
2019-02-10T22:23:24.230Z,0.90
2019-02-10T22:25:52.850Z,0.90
2019-02-10T22:28:21.522Z,0.93
2019-02-10T22:30:50.114Z,2.20
2019-02-10T22:33:19.102Z,2.80
2019-02-10T22:35:47.690Z,0.73
2019-02-10T22:38:16.282Z,2.20
2019-02-10T22:40:44.854Z,0.70
2019-02-10T22:43:13.424Z,0.80
2019-02-10T22:45:42.438Z,0.77
2019-02-10T22:48:11.000Z,0.70
2019-02-10T22:50:39.705Z,0.70
2019-02-10T22:53:08.266Z,0.70
2019-02-10T22:55:36.833Z,0.60
2019-02-10T22:58:05.453Z,1.23
2019-02-10T23:00:52.664Z,0.77
2019-02-10T23:03:21.301Z,0.60
2019-02-10T23:05:50.043Z,0.70
2019-02-10T23:08:18.704Z,2.93
2019-02-10T23:10:47.293Z,1.30
2019-02-10T23:13:16.354Z,0.90
2019-02-10T23:15:44.877Z,0.80
2019-02-10T23:18:13.494Z,0.67
2019-02-10T23:20:42.058Z,0.57
2019-02-10T23:23:10.727Z,0.60
2019-02-10T23:25:39.324Z,0.70
2019-02-10T23:28:08.210Z,0.80
2019-02-10T23:30:36.802Z,0.80
2019-02-10T23:33:05.357Z,0.70
2019-02-10T23:35:33.966Z,0.70
2019-02-10T23:38:02.949Z,0.80
2019-02-10T23:40:31.590Z,0.80
2019-02-10T23:43:02.081Z,0.77
2019-02-10T23:45:30.750Z,0.70
2019-02-10T23:47:59.339Z,2.10
2019-02-10T23:50:27.945Z,0.90
2019-02-10T23:52:56.597Z,1.00
2019-02-10T23:55:25.173Z,1.17
2019-02-10T23:57:53.772Z,1.70
